sensor_id;sensor_type;location;lat;lon;timestamp;P1;durP1;ratioP1;P2;durP2;ratioP2
41755;SDS011;27435;48.480;9.258;2023-12-20T00:01:35;1.17;;;0.63;;
41755;SDS011;27435;48.480;9.258;2023-12-20T00:04:01;1.67;;;0.70;;
41755;SDS011;27435;48.480;9.258;2023-12-20T00:06:27;2.70;;;0.63;;
41755;SDS011;27435;48.480;9.258;2023-12-20T00:08:52;1.60;;;0.57;;
41755;SDS011;27435;48.480;9.258;2023-12-20T00:11:18;0.90;;;0.40;;
41755;SDS011;27435;48.480;9.258;2023-12-20T00:13:44;1.43;;;0.40;;
41755;SDS011;27435;48.480;9.258;2023-12-20T00:16:09;0.90;;;0.43;;
41755;SDS011;27435;48.480;9.258;2023-12-20T00:18:36;0.90;;;0.40;;
41755;SDS011;27435;48.480;9.258;2023-12-20T00:21:02;1.00;;;0.40;;
41755;SDS011;27435;48.480;9.258;2023-12-20T00:23:28;1.13;;;0.47;;
41755;SDS011;27435;48.480;9.258;2023-12-20T00:25:53;0.67;;;0.30;;
41755;SDS011;27435;48.480;9.258;2023-12-20T00:28:19;0.80;;;0.30;;
41755;SDS011;27435;48.480;9.258;2023-12-20T00:30:45;0.93;;;0.40;;
41755;SDS011;27435;48.480;9.258;2023-12-20T00:33:10;0.90;;;0.37;;
41755;SDS011;27435;48.480;9.258;2023-12-20T00:35:36;1.23;;;0.50;;
41755;SDS011;27435;48.480;9.258;2023-12-20T00:38:01;1.57;;;0.50;;
41755;SDS011;27435;48.480;9.258;2023-12-20T00:40:27;2.97;;;0.40;;
41755;SDS011;27435;48.480;9.258;2023-12-20T00:42:53;1.67;;;0.50;;
41755;SDS011;27435;48.480;9.258;2023-12-20T00:45:18;0.67;;;0.30;;
41755;SDS011;27435;48.480;9.258;2023-12-20T00:47:44;1.17;;;0.40;;
41755;SDS011;27435;48.480;9.258;2023-12-20T00:50:10;0.70;;;0.40;;
41755;SDS011;27435;48.480;9.258;2023-12-20T00:52:36;1.07;;;0.40;;
41755;SDS011;27435;48.480;9.258;2023-12-20T00:55:01;0.57;;;0.30;;
41755;SDS011;27435;48.480;9.258;2023-12-20T00:57:28;0.60;;;0.40;;
41755;SDS011;27435;48.480;9.258;2023-12-20T00:59:54;1.10;;;0.40;;
41755;SDS011;27435;48.480;9.258;2023-12-20T01:02:20;0.90;;;0.40;;
41755;SDS011;27435;48.480;9.258;2023-12-20T01:04:45;0.73;;;0.50;;
41755;SDS011;27435;48.480;9.258;2023-12-20T01:07:11;0.77;;;0.40;;
41755;SDS011;27435;48.480;9.258;2023-12-20T01:09:37;0.60;;;0.40;;
41755;SDS011;27435;48.480;9.258;2023-12-20T01:12:03;1.67;;;0.40;;
41755;SDS011;27435;48.480;9.258;2023-12-20T01:14:29;0.67;;;0.40;;
41755;SDS011;27435;48.480;9.258;2023-12-20T01:16:54;0.40;;;0.30;;
41755;SDS011;27435;48.480;9.258;2023-12-20T01:19:20;1.63;;;0.50;;
41755;SDS011;27435;48.480;9.258;2023-12-20T01:21:46;0.80;;;0.40;;
41755;SDS011;27435;48.480;9.258;2023-12-20T01:24:12;1.83;;;0.83;;
41755;SDS011;27435;48.480;9.258;2023-12-20T01:26:37;1.53;;;0.60;;
41755;SDS011;27435;48.480;9.258;2023-12-20T01:29:03;1.70;;;0.60;;
41755;SDS011;27435;48.480;9.258;2023-12-20T01:31:28;1.93;;;0.60;;
41755;SDS011;27435;48.480;9.258;2023-12-20T01:33:54;1.83;;;0.70;;
41755;SDS011;27435;48.480;9.258;2023-12-20T01:36:20;1.47;;;0.60;;
41755;SDS011;27435;48.480;9.258;2023-12-20T01:38:45;2.00;;;0.70;;
41755;SDS011;27435;48.480;9.258;2023-12-20T01:41:11;1.50;;;0.60;;
41755;SDS011;27435;48.480;9.258;2023-12-20T01:43:36;1.40;;;0.70;;
41755;SDS011;27435;48.480;9.258;2023-12-20T01:46:02;2.00;;;0.70;;
41755;SDS011;27435;48.480;9.258;2023-12-20T01:48:28;3.73;;;0.90;;
41755;SDS011;27435;48.480;9.258;2023-12-20T01:50:57;1.30;;;0.60;;
41755;SDS011;27435;48.480;9.258;2023-12-20T01:53:24;1.67;;;0.70;;
41755;SDS011;27435;48.480;9.258;2023-12-20T01:55:52;1.47;;;0.70;;
41755;SDS011;27435;48.480;9.258;2023-12-20T01:58:20;1.10;;;0.60;;
41755;SDS011;27435;48.480;9.258;2023-12-20T02:00:47;1.43;;;0.70;;
41755;SDS011;27435;48.480;9.258;2023-12-20T02:03:14;2.23;;;0.80;;
41755;SDS011;27435;48.480;9.258;2023-12-20T02:05:39;1.90;;;0.80;;
41755;SDS011;27435;48.480;9.258;2023-12-20T02:08:06;1.57;;;0.83;;
41755;SDS011;27435;48.480;9.258;2023-12-20T02:10:32;1.50;;;0.70;;
41755;SDS011;27435;48.480;9.258;2023-12-20T02:12:57;1.23;;;0.60;;
41755;SDS011;27435;48.480;9.258;2023-12-20T02:15:23;1.37;;;0.60;;
41755;SDS011;27435;48.480;9.258;2023-12-20T02:17:49;1.63;;;0.70;;
41755;SDS011;27435;48.480;9.258;2023-12-20T02:20:15;1.33;;;0.70;;
41755;SDS011;27435;48.480;9.258;2023-12-20T02:22:41;1.50;;;0.60;;
41755;SDS011;27435;48.480;9.258;2023-12-20T02:25:06;1.83;;;0.60;;
41755;SDS011;27435;48.480;9.258;2023-12-20T02:27:32;1.83;;;0.80;;
41755;SDS011;27435;48.480;9.258;2023-12-20T02:29:59;2.20;;;0.67;;
41755;SDS011;27435;48.480;9.258;2023-12-20T02:32:25;1.10;;;0.50;;
41755;SDS011;27435;48.480;9.258;2023-12-20T02:34:54;0.97;;;0.50;;
41755;SDS011;27435;48.480;9.258;2023-12-20T02:37:20;1.60;;;0.80;;
41755;SDS011;27435;48.480;9.258;2023-12-20T02:39:46;0.97;;;0.50;;
41755;SDS011;27435;48.480;9.258;2023-12-20T02:42:12;1.23;;;0.80;;
41755;SDS011;27435;48.480;9.258;2023-12-20T02:44:37;1.53;;;0.77;;
41755;SDS011;27435;48.480;9.258;2023-12-20T02:47:03;1.63;;;0.70;;
41755;SDS011;27435;48.480;9.258;2023-12-20T02:49:29;1.17;;;0.57;;
41755;SDS011;27435;48.480;9.258;2023-12-20T02:51:55;1.50;;;0.60;;
41755;SDS011;27435;48.480;9.258;2023-12-20T02:54:20;1.50;;;0.60;;
41755;SDS011;27435;48.480;9.258;2023-12-20T02:56:46;2.07;;;0.60;;
41755;SDS011;27435;48.480;9.258;2023-12-20T02:59:12;1.40;;;0.77;;
41755;SDS011;27435;48.480;9.258;2023-12-20T03:01:45;1.27;;;0.70;;
41755;SDS011;27435;48.480;9.258;2023-12-20T03:04:11;1.77;;;0.73;;
41755;SDS011;27435;48.480;9.258;2023-12-20T03:06:37;0.90;;;0.60;;
41755;SDS011;27435;48.480;9.258;2023-12-20T03:09:03;2.17;;;0.60;;
41755;SDS011;27435;48.480;9.258;2023-12-20T03:11:29;1.33;;;0.67;;
41755;SDS011;27435;48.480;9.258;2023-12-20T03:13:55;1.73;;;0.90;;
41755;SDS011;27435;48.480;9.258;2023-12-20T03:16:21;1.17;;;0.60;;
41755;SDS011;27435;48.480;9.258;2023-12-20T03:18:47;1.10;;;0.50;;
41755;SDS011;27435;48.480;9.258;2023-12-20T03:21:12;1.10;;;0.40;;
41755;SDS011;27435;48.480;9.258;2023-12-20T03:23:38;0.80;;;0.50;;
41755;SDS011;27435;48.480;9.258;2023-12-20T03:26:08;0.87;;;0.40;;
41755;SDS011;27435;48.480;9.258;2023-12-20T03:28:34;1.33;;;0.57;;
41755;SDS011;27435;48.480;9.258;2023-12-20T03:31:01;0.90;;;0.43;;
41755;SDS011;27435;48.480;9.258;2023-12-20T03:33:27;1.00;;;0.47;;
41755;SDS011;27435;48.480;9.258;2023-12-20T03:35:53;0.57;;;0.40;;
41755;SDS011;27435;48.480;9.258;2023-12-20T03:38:19;1.23;;;0.50;;
41755;SDS011;27435;48.480;9.258;2023-12-20T03:40:45;1.03;;;0.50;;
41755;SDS011;27435;48.480;9.258;2023-12-20T03:43:10;1.10;;;0.50;;
41755;SDS011;27435;48.480;9.258;2023-12-20T03:45:36;0.67;;;0.30;;
41755;SDS011;27435;48.480;9.258;2023-12-20T03:48:02;0.70;;;0.30;;
41755;SDS011;27435;48.480;9.258;2023-12-20T03:50:28;0.63;;;0.40;;
41755;SDS011;27435;48.480;9.258;2023-12-20T03:52:54;0.50;;;0.30;;
41755;SDS011;27435;48.480;9.258;2023-12-20T03:55:19;0.90;;;0.40;;
41755;SDS011;27435;48.480;9.258;2023-12-20T03:57:45;0.87;;;0.40;;
41755;SDS011;27435;48.480;9.258;2023-12-20T04:00:11;0.73;;;0.43;;
41755;SDS011;27435;48.480;9.258;2023-12-20T04:02:40;0.40;;;0.20;;
41755;SDS011;27435;48.480;9.258;2023-12-20T04:05:07;2.37;;;0.40;;
41755;SDS011;27435;48.480;9.258;2023-12-20T04:07:33;2.37;;;0.37;;
41755;SDS011;27435;48.480;9.258;2023-12-20T04:09:59;1.93;;;0.30;;
41755;SDS011;27435;48.480;9.258;2023-12-20T04:12:26;0.50;;;0.30;;
41755;SDS011;27435;48.480;9.258;2023-12-20T04:14:53;0.40;;;0.20;;
41755;SDS011;27435;48.480;9.258;2023-12-20T04:17:19;1.03;;;0.40;;
41755;SDS011;27435;48.480;9.258;2023-12-20T04:19:45;1.47;;;0.23;;
41755;SDS011;27435;48.480;9.258;2023-12-20T04:22:11;0.60;;;0.33;;
41755;SDS011;27435;48.480;9.258;2023-12-20T04:24:36;0.73;;;0.40;;
41755;SDS011;27435;48.480;9.258;2023-12-20T04:27:02;0.40;;;0.20;;
41755;SDS011;27435;48.480;9.258;2023-12-20T04:29:28;0.50;;;0.30;;
41755;SDS011;27435;48.480;9.258;2023-12-20T04:31:53;1.10;;;0.30;;
41755;SDS011;27435;48.480;9.258;2023-12-20T04:34:19;0.40;;;0.27;;
41755;SDS011;27435;48.480;9.258;2023-12-20T04:36:45;0.70;;;0.30;;
41755;SDS011;27435;48.480;9.258;2023-12-20T04:39:12;0.63;;;0.20;;
41755;SDS011;27435;48.480;9.258;2023-12-20T04:41:38;1.80;;;0.20;;
41755;SDS011;27435;48.480;9.258;2023-12-20T04:44:06;0.67;;;0.30;;
41755;SDS011;27435;48.480;9.258;2023-12-20T04:46:34;1.00;;;0.40;;
41755;SDS011;27435;48.480;9.258;2023-12-20T04:49:00;1.03;;;0.40;;
41755;SDS011;27435;48.480;9.258;2023-12-20T04:51:26;0.60;;;0.27;;
41755;SDS011;27435;48.480;9.258;2023-12-20T04:53:52;1.90;;;0.30;;
41755;SDS011;27435;48.480;9.258;2023-12-20T04:56:17;0.30;;;0.23;;
41755;SDS011;27435;48.480;9.258;2023-12-20T04:58:43;0.60;;;0.33;;
41755;SDS011;27435;48.480;9.258;2023-12-20T05:01:09;1.00;;;0.40;;
41755;SDS011;27435;48.480;9.258;2023-12-20T05:03:34;0.70;;;0.30;;
41755;SDS011;27435;48.480;9.258;2023-12-20T05:06:00;1.40;;;0.53;;
41755;SDS011;27435;48.480;9.258;2023-12-20T05:08:26;1.53;;;0.30;;
41755;SDS011;27435;48.480;9.258;2023-12-20T05:10:55;1.30;;;0.47;;
41755;SDS011;27435;48.480;9.258;2023-12-20T05:13:21;3.53;;;0.87;;
41755;SDS011;27435;48.480;9.258;2023-12-20T05:15:47;0.73;;;0.30;;
41755;SDS011;27435;48.480;9.258;2023-12-20T05:18:13;1.53;;;0.70;;
41755;SDS011;27435;48.480;9.258;2023-12-20T05:20:38;0.97;;;0.43;;
41755;SDS011;27435;48.480;9.258;2023-12-20T05:23:04;0.67;;;0.43;;
41755;SDS011;27435;48.480;9.258;2023-12-20T05:25:30;1.10;;;0.63;;
41755;SDS011;27435;48.480;9.258;2023-12-20T05:27:56;1.03;;;0.37;;
41755;SDS011;27435;48.480;9.258;2023-12-20T05:30:21;0.70;;;0.30;;
41755;SDS011;27435;48.480;9.258;2023-12-20T05:32:47;0.90;;;0.43;;
41755;SDS011;27435;48.480;9.258;2023-12-20T05:35:12;0.53;;;0.30;;
41755;SDS011;27435;48.480;9.258;2023-12-20T05:37:38;0.20;;;0.20;;
41755;SDS011;27435;48.480;9.258;2023-12-20T05:40:04;0.40;;;0.20;;
41755;SDS011;27435;48.480;9.258;2023-12-20T05:42:30;0.90;;;0.30;;
41755;SDS011;27435;48.480;9.258;2023-12-20T05:44:56;0.23;;;0.20;;
41755;SDS011;27435;48.480;9.258;2023-12-20T05:47:21;0.77;;;0.30;;
41755;SDS011;27435;48.480;9.258;2023-12-20T05:49:47;0.53;;;0.30;;
41755;SDS011;27435;48.480;9.258;2023-12-20T05:52:13;2.60;;;0.30;;
41755;SDS011;27435;48.480;9.258;2023-12-20T05:54:38;0.53;;;0.30;;
41755;SDS011;27435;48.480;9.258;2023-12-20T05:57:04;0.97;;;0.40;;
41755;SDS011;27435;48.480;9.258;2023-12-20T05:59:30;0.20;;;0.20;;
41755;SDS011;27435;48.480;9.258;2023-12-20T06:01:55;0.57;;;0.30;;
41755;SDS011;27435;48.480;9.258;2023-12-20T06:04:21;0.50;;;0.20;;
41755;SDS011;27435;48.480;9.258;2023-12-20T06:06:46;0.97;;;0.30;;
41755;SDS011;27435;48.480;9.258;2023-12-20T06:09:12;0.67;;;0.40;;
41755;SDS011;27435;48.480;9.258;2023-12-20T06:11:38;0.97;;;0.30;;
41755;SDS011;27435;48.480;9.258;2023-12-20T06:14:03;5.30;;;0.60;;
41755;SDS011;27435;48.480;9.258;2023-12-20T06:16:29;0.67;;;0.30;;
41755;SDS011;27435;48.480;9.258;2023-12-20T06:18:55;1.63;;;0.50;;
41755;SDS011;27435;48.480;9.258;2023-12-20T06:21:21;0.40;;;0.30;;
41755;SDS011;27435;48.480;9.258;2023-12-20T06:23:47;1.50;;;0.50;;
41755;SDS011;27435;48.480;9.258;2023-12-20T06:26:12;1.17;;;0.40;;
41755;SDS011;27435;48.480;9.258;2023-12-20T06:28:38;3.53;;;0.83;;
41755;SDS011;27435;48.480;9.258;2023-12-20T06:31:03;1.50;;;0.60;;
41755;SDS011;27435;48.480;9.258;2023-12-20T06:33:29;1.73;;;0.90;;
41755;SDS011;27435;48.480;9.258;2023-12-20T06:35:56;9.53;;;1.23;;
41755;SDS011;27435;48.480;9.258;2023-12-20T06:38:22;4.60;;;0.97;;
41755;SDS011;27435;48.480;9.258;2023-12-20T06:40:47;1.40;;;0.60;;
41755;SDS011;27435;48.480;9.258;2023-12-20T06:43:13;0.63;;;0.40;;
41755;SDS011;27435;48.480;9.258;2023-12-20T06:45:39;1.30;;;0.60;;
41755;SDS011;27435;48.480;9.258;2023-12-20T06:48:05;0.97;;;0.47;;
41755;SDS011;27435;48.480;9.258;2023-12-20T06:50:31;2.57;;;1.37;;
41755;SDS011;27435;48.480;9.258;2023-12-20T06:52:57;3.40;;;1.73;;
41755;SDS011;27435;48.480;9.258;2023-12-20T06:55:22;1.87;;;0.90;;
41755;SDS011;27435;48.480;9.258;2023-12-20T06:57:48;1.90;;;0.40;;
41755;SDS011;27435;48.480;9.258;2023-12-20T07:00:15;1.57;;;0.60;;
41755;SDS011;27435;48.480;9.258;2023-12-20T07:02:41;0.67;;;0.40;;
41755;SDS011;27435;48.480;9.258;2023-12-20T07:05:06;0.87;;;0.40;;
41755;SDS011;27435;48.480;9.258;2023-12-20T07:07:32;1.10;;;0.40;;
41755;SDS011;27435;48.480;9.258;2023-12-20T07:09:58;1.87;;;0.50;;
41755;SDS011;27435;48.480;9.258;2023-12-20T07:12:23;1.80;;;0.67;;
41755;SDS011;27435;48.480;9.258;2023-12-20T07:14:49;0.40;;;0.30;;
41755;SDS011;27435;48.480;9.258;2023-12-20T07:17:15;2.10;;;0.43;;
41755;SDS011;27435;48.480;9.258;2023-12-20T07:19:41;1.13;;;0.50;;
41755;SDS011;27435;48.480;9.258;2023-12-20T07:22:07;1.20;;;0.50;;
41755;SDS011;27435;48.480;9.258;2023-12-20T07:24:33;2.60;;;0.60;;
41755;SDS011;27435;48.480;9.258;2023-12-20T07:26:59;0.80;;;0.33;;
41755;SDS011;27435;48.480;9.258;2023-12-20T07:29:25;1.33;;;0.40;;
41755;SDS011;27435;48.480;9.258;2023-12-20T07:31:52;0.60;;;0.43;;
41755;SDS011;27435;48.480;9.258;2023-12-20T07:34:18;0.60;;;0.40;;
41755;SDS011;27435;48.480;9.258;2023-12-20T07:36:47;0.57;;;0.30;;
41755;SDS011;27435;48.480;9.258;2023-12-20T07:39:13;0.63;;;0.40;;
41755;SDS011;27435;48.480;9.258;2023-12-20T07:41:39;0.93;;;0.50;;
41755;SDS011;27435;48.480;9.258;2023-12-20T07:44:05;1.10;;;0.40;;
41755;SDS011;27435;48.480;9.258;2023-12-20T07:46:31;1.30;;;0.50;;
41755;SDS011;27435;48.480;9.258;2023-12-20T07:48:57;2.47;;;0.40;;
41755;SDS011;27435;48.480;9.258;2023-12-20T07:51:23;1.37;;;0.43;;
41755;SDS011;27435;48.480;9.258;2023-12-20T07:53:48;1.27;;;0.40;;
41755;SDS011;27435;48.480;9.258;2023-12-20T07:56:17;0.90;;;0.50;;
41755;SDS011;27435;48.480;9.258;2023-12-20T07:58:44;0.80;;;0.37;;
41755;SDS011;27435;48.480;9.258;2023-12-20T08:01:11;1.93;;;0.60;;
41755;SDS011;27435;48.480;9.258;2023-12-20T08:03:37;0.90;;;0.50;;
41755;SDS011;27435;48.480;9.258;2023-12-20T08:06:03;0.63;;;0.40;;
41755;SDS011;27435;48.480;9.258;2023-12-20T08:08:29;1.97;;;0.33;;
41755;SDS011;27435;48.480;9.258;2023-12-20T08:10:55;0.70;;;0.40;;
41755;SDS011;27435;48.480;9.258;2023-12-20T08:13:22;1.67;;;0.40;;
41755;SDS011;27435;48.480;9.258;2023-12-20T08:15:51;1.07;;;0.30;;
41755;SDS011;27435;48.480;9.258;2023-12-20T08:18:17;0.73;;;0.37;;
41755;SDS011;27435;48.480;9.258;2023-12-20T08:20:42;0.70;;;0.47;;
41755;SDS011;27435;48.480;9.258;2023-12-20T08:23:08;0.93;;;0.37;;
41755;SDS011;27435;48.480;9.258;2023-12-20T08:25:33;1.43;;;0.60;;
41755;SDS011;27435;48.480;9.258;2023-12-20T08:27:59;1.33;;;0.50;;
41755;SDS011;27435;48.480;9.258;2023-12-20T08:30:25;0.90;;;0.50;;
41755;SDS011;27435;48.480;9.258;2023-12-20T08:32:51;3.93;;;0.53;;
41755;SDS011;27435;48.480;9.258;2023-12-20T08:35:17;3.17;;;0.70;;
41755;SDS011;27435;48.480;9.258;2023-12-20T08:37:43;1.43;;;0.70;;
41755;SDS011;27435;48.480;9.258;2023-12-20T08:40:09;2.23;;;0.93;;
41755;SDS011;27435;48.480;9.258;2023-12-20T08:42:35;3.07;;;0.77;;
41755;SDS011;27435;48.480;9.258;2023-12-20T08:45:01;4.20;;;0.80;;
41755;SDS011;27435;48.480;9.258;2023-12-20T08:47:29;1.37;;;0.70;;
41755;SDS011;27435;48.480;9.258;2023-12-20T08:49:54;3.07;;;0.60;;
41755;SDS011;27435;48.480;9.258;2023-12-20T08:52:24;1.63;;;0.60;;
41755;SDS011;27435;48.480;9.258;2023-12-20T08:54:50;2.47;;;0.80;;
41755;SDS011;27435;48.480;9.258;2023-12-20T08:57:20;2.00;;;0.70;;
41755;SDS011;27435;48.480;9.258;2023-12-20T08:59:48;1.30;;;0.60;;
41755;SDS011;27435;48.480;9.258;2023-12-20T09:02:17;1.00;;;0.40;;
41755;SDS011;27435;48.480;9.258;2023-12-20T09:04:43;2.00;;;1.13;;
41755;SDS011;27435;48.480;9.258;2023-12-20T09:07:24;3.67;;;1.33;;
41755;SDS011;27435;48.480;9.258;2023-12-20T09:09:51;3.07;;;1.13;;
41755;SDS011;27435;48.480;9.258;2023-12-20T09:12:18;4.00;;;0.70;;
41755;SDS011;27435;48.480;9.258;2023-12-20T09:14:45;2.50;;;1.03;;
41755;SDS011;27435;48.480;9.258;2023-12-20T09:17:11;4.17;;;1.10;;
41755;SDS011;27435;48.480;9.258;2023-12-20T09:19:37;1.50;;;0.70;;
41755;SDS011;27435;48.480;9.258;2023-12-20T09:22:04;2.53;;;0.77;;
41755;SDS011;27435;48.480;9.258;2023-12-20T09:24:30;3.43;;;0.70;;
41755;SDS011;27435;48.480;9.258;2023-12-20T09:26:56;1.70;;;0.60;;
41755;SDS011;27435;48.480;9.258;2023-12-20T09:29:22;5.87;;;0.80;;
41755;SDS011;27435;48.480;9.258;2023-12-20T09:31:51;1.60;;;0.87;;
41755;SDS011;27435;48.480;9.258;2023-12-20T09:34:16;1.57;;;0.60;;
41755;SDS011;27435;48.480;9.258;2023-12-20T09:36:42;2.20;;;1.00;;
41755;SDS011;27435;48.480;9.258;2023-12-20T09:39:14;2.27;;;1.20;;
41755;SDS011;27435;48.480;9.258;2023-12-20T09:42:02;6.82;;;1.30;;
41755;SDS011;27435;48.480;9.258;2023-12-20T09:44:29;3.03;;;1.07;;
41755;SDS011;27435;48.480;9.258;2023-12-20T09:46:56;3.20;;;1.57;;
41755;SDS011;27435;48.480;9.258;2023-12-20T09:49:22;2.47;;;1.40;;
41755;SDS011;27435;48.480;9.258;2023-12-20T09:51:50;5.60;;;2.00;;
41755;SDS011;27435;48.480;9.258;2023-12-20T09:54:17;6.73;;;3.13;;
41755;SDS011;27435;48.480;9.258;2023-12-20T09:56:43;9.17;;;2.73;;
41755;SDS011;27435;48.480;9.258;2023-12-20T09:59:09;4.73;;;2.10;;
41755;SDS011;27435;48.480;9.258;2023-12-20T10:01:35;9.37;;;2.00;;
41755;SDS011;27435;48.480;9.258;2023-12-20T10:04:04;6.13;;;2.00;;
41755;SDS011;27435;48.480;9.258;2023-12-20T10:06:37;6.93;;;2.17;;
41755;SDS011;27435;48.480;9.258;2023-12-20T10:09:04;4.70;;;1.60;;
41755;SDS011;27435;48.480;9.258;2023-12-20T10:11:30;5.10;;;1.90;;
41755;SDS011;27435;48.480;9.258;2023-12-20T10:13:59;6.80;;;2.97;;
41755;SDS011;27435;48.480;9.258;2023-12-20T10:16:29;2.43;;;1.20;;
41755;SDS011;27435;48.480;9.258;2023-12-20T10:18:55;5.37;;;1.80;;
41755;SDS011;27435;48.480;9.258;2023-12-20T10:21:24;7.40;;;1.83;;
41755;SDS011;27435;48.480;9.258;2023-12-20T10:23:54;6.63;;;1.97;;
41755;SDS011;27435;48.480;9.258;2023-12-20T10:26:20;6.73;;;2.10;;
41755;SDS011;27435;48.480;9.258;2023-12-20T10:28:53;6.50;;;3.23;;
41755;SDS011;27435;48.480;9.258;2023-12-20T10:31:26;3.63;;;1.70;;
41755;SDS011;27435;48.480;9.258;2023-12-20T10:33:52;4.20;;;1.60;;
41755;SDS011;27435;48.480;9.258;2023-12-20T10:36:17;4.67;;;1.57;;
41755;SDS011;27435;48.480;9.258;2023-12-20T10:38:43;3.60;;;2.27;;
41755;SDS011;27435;48.480;9.258;2023-12-20T10:41:10;4.33;;;1.73;;
41755;SDS011;27435;48.480;9.258;2023-12-20T10:43:37;4.30;;;1.97;;
41755;SDS011;27435;48.480;9.258;2023-12-20T10:46:03;5.67;;;1.60;;
41755;SDS011;27435;48.480;9.258;2023-12-20T10:48:31;4.90;;;1.60;;
41755;SDS011;27435;48.480;9.258;2023-12-20T10:50:57;5.27;;;1.00;;
41755;SDS011;27435;48.480;9.258;2023-12-20T10:53:24;6.53;;;2.83;;
41755;SDS011;27435;48.480;9.258;2023-12-20T10:55:50;2.97;;;1.40;;
41755;SDS011;27435;48.480;9.258;2023-12-20T10:58:19;2.93;;;1.30;;
41755;SDS011;27435;48.480;9.258;2023-12-20T11:00:46;5.43;;;1.53;;
41755;SDS011;27435;48.480;9.258;2023-12-20T11:03:14;9.20;;;1.67;;
41755;SDS011;27435;48.480;9.258;2023-12-20T11:05:45;6.47;;;1.20;;
41755;SDS011;27435;48.480;9.258;2023-12-20T11:11:07;3.93;;;1.60;;
41755;SDS011;27435;48.480;9.258;2023-12-20T11:14:02;5.13;;;1.60;;
41755;SDS011;27435;48.480;9.258;2023-12-20T11:16:31;3.73;;;1.20;;
41755;SDS011;27435;48.480;9.258;2023-12-20T11:18:57;4.83;;;1.07;;
41755;SDS011;27435;48.480;9.258;2023-12-20T11:21:29;5.97;;;1.00;;
41755;SDS011;27435;48.480;9.258;2023-12-20T11:23:55;3.70;;;1.27;;
41755;SDS011;27435;48.480;9.258;2023-12-20T11:26:26;2.93;;;1.23;;
41755;SDS011;27435;48.480;9.258;2023-12-20T11:29:41;3.17;;;0.95;;
41755;SDS011;27435;48.480;9.258;2023-12-20T11:31:54;4.73;;;0.90;;
41755;SDS011;27435;48.480;9.258;2023-12-20T11:34:20;2.10;;;0.80;;
41755;SDS011;27435;48.480;9.258;2023-12-20T11:36:45;3.97;;;1.30;;
41755;SDS011;27435;48.480;9.258;2023-12-20T11:39:11;3.93;;;1.23;;
41755;SDS011;27435;48.480;9.258;2023-12-20T11:41:44;4.87;;;1.60;;
41755;SDS011;27435;48.480;9.258;2023-12-20T11:44:10;2.40;;;1.00;;
41755;SDS011;27435;48.480;9.258;2023-12-20T11:46:36;3.93;;;1.77;;
41755;SDS011;27435;48.480;9.258;2023-12-20T11:49:02;4.87;;;1.90;;
41755;SDS011;27435;48.480;9.258;2023-12-20T11:51:28;5.77;;;1.53;;
41755;SDS011;27435;48.480;9.258;2023-12-20T11:53:53;5.10;;;1.33;;
41755;SDS011;27435;48.480;9.258;2023-12-20T11:56:19;5.13;;;1.63;;
41755;SDS011;27435;48.480;9.258;2023-12-20T11:58:45;4.70;;;1.20;;
41755;SDS011;27435;48.480;9.258;2023-12-20T12:01:10;4.40;;;1.00;;
41755;SDS011;27435;48.480;9.258;2023-12-20T12:03:36;4.30;;;1.33;;
41755;SDS011;27435;48.480;9.258;2023-12-20T12:06:02;2.90;;;1.10;;
41755;SDS011;27435;48.480;9.258;2023-12-20T12:08:29;5.40;;;1.77;;
41755;SDS011;27435;48.480;9.258;2023-12-20T12:10:55;4.57;;;1.23;;
41755;SDS011;27435;48.480;9.258;2023-12-20T12:13:21;4.87;;;1.63;;
41755;SDS011;27435;48.480;9.258;2023-12-20T12:15:47;4.33;;;1.33;;
41755;SDS011;27435;48.480;9.258;2023-12-20T12:18:15;2.60;;;1.10;;
41755;SDS011;27435;48.480;9.258;2023-12-20T12:20:42;6.07;;;1.10;;
41755;SDS011;27435;48.480;9.258;2023-12-20T12:23:08;4.00;;;1.17;;
41755;SDS011;27435;48.480;9.258;2023-12-20T12:25:36;5.73;;;1.23;;
41755;SDS011;27435;48.480;9.258;2023-12-20T12:28:02;6.73;;;1.47;;
41755;SDS011;27435;48.480;9.258;2023-12-20T12:30:28;5.03;;;1.80;;
41755;SDS011;27435;48.480;9.258;2023-12-20T12:32:55;4.33;;;1.07;;
41755;SDS011;27435;48.480;9.258;2023-12-20T12:35:21;7.57;;;1.50;;
41755;SDS011;27435;48.480;9.258;2023-12-20T12:37:47;5.57;;;1.00;;
41755;SDS011;27435;48.480;9.258;2023-12-20T12:40:14;3.50;;;1.90;;
41755;SDS011;27435;48.480;9.258;2023-12-20T12:42:41;5.53;;;1.23;;
41755;SDS011;27435;48.480;9.258;2023-12-20T12:45:08;5.17;;;1.13;;
41755;SDS011;27435;48.480;9.258;2023-12-20T12:47:36;5.33;;;0.97;;
41755;SDS011;27435;48.480;9.258;2023-12-20T12:50:02;5.27;;;1.90;;
41755;SDS011;27435;48.480;9.258;2023-12-20T12:52:28;9.73;;;1.73;;
41755;SDS011;27435;48.480;9.258;2023-12-20T12:54:53;5.07;;;0.77;;
41755;SDS011;27435;48.480;9.258;2023-12-20T12:57:19;5.80;;;1.13;;
41755;SDS011;27435;48.480;9.258;2023-12-20T12:59:45;4.20;;;0.90;;
41755;SDS011;27435;48.480;9.258;2023-12-20T13:02:12;1.90;;;0.73;;
41755;SDS011;27435;48.480;9.258;2023-12-20T13:04:38;3.43;;;1.13;;
41755;SDS011;27435;48.480;9.258;2023-12-20T13:07:04;6.00;;;1.10;;
41755;SDS011;27435;48.480;9.258;2023-12-20T13:09:30;5.37;;;1.10;;
41755;SDS011;27435;48.480;9.258;2023-12-20T13:11:56;3.73;;;1.27;;
41755;SDS011;27435;48.480;9.258;2023-12-20T13:14:22;6.30;;;0.93;;
41755;SDS011;27435;48.480;9.258;2023-12-20T13:16:47;6.70;;;1.20;;
41755;SDS011;27435;48.480;9.258;2023-12-20T13:19:13;7.60;;;1.23;;
41755;SDS011;27435;48.480;9.258;2023-12-20T13:21:39;7.73;;;1.20;;
41755;SDS011;27435;48.480;9.258;2023-12-20T13:24:04;5.67;;;1.10;;
41755;SDS011;27435;48.480;9.258;2023-12-20T13:26:30;6.90;;;1.13;;
41755;SDS011;27435;48.480;9.258;2023-12-20T13:28:56;3.60;;;0.97;;
41755;SDS011;27435;48.480;9.258;2023-12-20T13:31:22;5.23;;;0.90;;
41755;SDS011;27435;48.480;9.258;2023-12-20T13:33:47;9.10;;;1.90;;
41755;SDS011;27435;48.480;9.258;2023-12-20T13:36:13;9.80;;;1.73;;
41755;SDS011;27435;48.480;9.258;2023-12-20T13:38:39;6.83;;;1.33;;
41755;SDS011;27435;48.480;9.258;2023-12-20T13:41:04;6.60;;;2.30;;
41755;SDS011;27435;48.480;9.258;2023-12-20T13:43:30;4.77;;;1.40;;
41755;SDS011;27435;48.480;9.258;2023-12-20T13:45:58;5.70;;;1.10;;
41755;SDS011;27435;48.480;9.258;2023-12-20T13:48:24;3.63;;;1.13;;
41755;SDS011;27435;48.480;9.258;2023-12-20T13:50:49;6.87;;;1.90;;
41755;SDS011;27435;48.480;9.258;2023-12-20T13:53:15;9.30;;;2.17;;
41755;SDS011;27435;48.480;9.258;2023-12-20T13:55:41;5.80;;;1.30;;
41755;SDS011;27435;48.480;9.258;2023-12-20T13:58:07;5.93;;;1.17;;
41755;SDS011;27435;48.480;9.258;2023-12-20T14:00:32;2.70;;;1.00;;
41755;SDS011;27435;48.480;9.258;2023-12-20T14:02:58;4.00;;;1.00;;
41755;SDS011;27435;48.480;9.258;2023-12-20T14:05:27;4.60;;;2.13;;
41755;SDS011;27435;48.480;9.258;2023-12-20T14:07:53;7.90;;;2.37;;
41755;SDS011;27435;48.480;9.258;2023-12-20T14:10:18;5.77;;;1.10;;
41755;SDS011;27435;48.480;9.258;2023-12-20T14:12:44;3.63;;;1.53;;
41755;SDS011;27435;48.480;9.258;2023-12-20T14:15:10;10.80;;;2.20;;
41755;SDS011;27435;48.480;9.258;2023-12-20T14:17:38;6.07;;;2.20;;
41755;SDS011;27435;48.480;9.258;2023-12-20T14:20:05;7.00;;;1.57;;
41755;SDS011;27435;48.480;9.258;2023-12-20T14:22:32;4.30;;;1.40;;
41755;SDS011;27435;48.480;9.258;2023-12-20T14:24:57;6.33;;;1.37;;
41755;SDS011;27435;48.480;9.258;2023-12-20T14:27:23;7.00;;;2.37;;
41755;SDS011;27435;48.480;9.258;2023-12-20T14:29:52;9.90;;;1.90;;
41755;SDS011;27435;48.480;9.258;2023-12-20T14:32:18;5.93;;;2.07;;
41755;SDS011;27435;48.480;9.258;2023-12-20T14:34:44;4.67;;;1.53;;
41755;SDS011;27435;48.480;9.258;2023-12-20T14:37:10;5.67;;;1.77;;
41755;SDS011;27435;48.480;9.258;2023-12-20T14:39:36;3.27;;;1.47;;
41755;SDS011;27435;48.480;9.258;2023-12-20T14:42:06;3.43;;;1.60;;
41755;SDS011;27435;48.480;9.258;2023-12-20T14:44:37;2.87;;;1.20;;
41755;SDS011;27435;48.480;9.258;2023-12-20T14:47:02;8.90;;;1.90;;